createdAt,value
2023-02-14T00:02:02.231Z,21.80
2023-02-14T00:05:05.658Z,21.79
2023-02-14T00:08:09.920Z,21.78
2023-02-14T00:11:14.386Z,21.80
2023-02-14T00:14:35.642Z,21.79
2023-02-14T00:17:38.449Z,21.78
2023-02-14T00:20:41.291Z,21.78
2023-02-14T00:23:45.483Z,21.78
2023-02-14T00:26:48.660Z,21.79
2023-02-14T00:29:51.681Z,21.78
2023-02-14T00:32:54.526Z,21.78
2023-02-14T00:35:57.317Z,21.79
2023-02-14T00:39:03.080Z,21.78
2023-02-14T00:42:05.993Z,21.78
2023-02-14T00:45:09.597Z,21.78
2023-02-14T00:48:12.437Z,21.77
2023-02-14T00:51:16.258Z,21.78
2023-02-14T00:54:20.730Z,21.77
2023-02-14T00:57:25.603Z,21.77
2023-02-14T01:00:28.424Z,21.77
2023-02-14T01:03:31.699Z,21.77
2023-02-14T01:06:35.000Z,21.77
2023-02-14T01:09:39.226Z,21.76
2023-02-14T01:12:42.034Z,21.78
2023-02-14T01:15:47.123Z,21.77
2023-02-14T01:18:51.148Z,21.77
2023-02-14T01:21:54.003Z,21.75
2023-02-14T01:25:00.194Z,21.75
2023-02-14T01:28:05.835Z,21.75
2023-02-14T01:31:11.338Z,21.75
2023-02-14T01:34:14.261Z,21.74
2023-02-14T01:37:17.064Z,21.74
2023-02-14T01:40:21.474Z,21.74
2023-02-14T01:43:24.820Z,21.73
2023-02-14T01:46:30.090Z,21.74
2023-02-14T01:49:38.209Z,21.74
2023-02-14T01:52:47.232Z,21.73
2023-02-14T01:55:59.731Z,21.73
2023-02-14T01:59:07.345Z,21.74
2023-02-14T02:02:11.186Z,21.73
2023-02-14T02:05:16.268Z,21.73
2023-02-14T02:08:19.307Z,21.73
2023-02-14T02:11:23.564Z,21.73
2023-02-14T02:14:26.504Z,21.73
2023-02-14T02:17:39.233Z,21.73
2023-02-14T02:21:16.963Z,21.72
2023-02-14T02:24:27.980Z,21.72
2023-02-14T02:28:05.203Z,21.72
2023-02-14T02:31:27.961Z,21.72
2023-02-14T02:35:00.818Z,21.71
2023-02-14T02:38:19.521Z,21.71
2023-02-14T02:41:32.162Z,21.72
2023-02-14T02:44:45.902Z,21.72
2023-02-14T02:47:59.010Z,21.71
2023-02-14T02:51:25.718Z,21.71
2023-02-14T02:54:36.312Z,21.71
2023-02-14T02:57:42.113Z,21.71
2023-02-14T03:00:45.475Z,21.70
2023-02-14T03:04:10.376Z,21.70
2023-02-14T03:07:32.646Z,21.69
2023-02-14T03:10:39.054Z,21.69
2023-02-14T03:14:09.449Z,21.70
2023-02-14T03:17:23.437Z,21.69
2023-02-14T03:20:37.943Z,21.69
2023-02-14T03:23:47.450Z,21.69
2023-02-14T03:26:53.859Z,21.69
2023-02-14T03:30:02.478Z,21.70
2023-02-14T03:33:10.502Z,21.70
2023-02-14T03:36:19.407Z,21.70
2023-02-14T03:39:29.288Z,21.70
2023-02-14T03:42:36.760Z,21.69
2023-02-14T03:45:44.273Z,21.70
2023-02-14T03:48:49.504Z,21.70
2023-02-14T03:51:55.873Z,21.71
2023-02-14T03:55:02.417Z,21.72
2023-02-14T03:58:10.110Z,21.72
2023-02-14T04:01:17.207Z,21.73
2023-02-14T04:04:22.834Z,21.74
2023-02-14T04:07:26.119Z,21.75
2023-02-14T04:10:30.405Z,21.75
2023-02-14T04:13:33.801Z,21.76
2023-02-14T04:16:56.827Z,21.75
2023-02-14T04:19:58.706Z,21.77
2023-02-14T04:23:03.445Z,21.77
2023-02-14T04:26:07.954Z,21.78
2023-02-14T04:29:11.099Z,21.79
2023-02-14T04:32:17.958Z,21.79
2023-02-14T04:35:20.921Z,21.80
2023-02-14T04:38:24.081Z,21.81
2023-02-14T04:41:28.359Z,21.81
2023-02-14T04:44:31.604Z,21.80
2023-02-14T04:47:35.075Z,21.80
2023-02-14T04:50:37.994Z,21.80
2023-02-14T04:53:40.789Z,21.79
2023-02-14T04:56:44.999Z,21.78
2023-02-14T05:02:50.700Z,21.78
2023-02-14T05:05:53.523Z,21.77
2023-02-14T05:08:56.826Z,21.78
2023-02-14T05:12:00.998Z,21.79
2023-02-14T05:15:03.946Z,21.80
2023-02-14T05:18:06.834Z,21.80
2023-02-14T05:21:09.679Z,21.81
2023-02-14T05:24:12.673Z,21.81
2023-02-14T05:27:16.960Z,21.81
2023-02-14T05:30:22.410Z,21.82
2023-02-14T05:33:25.967Z,21.83
2023-02-14T05:36:29.275Z,21.83
2023-02-14T05:39:32.254Z,21.83
2023-02-14T05:42:36.580Z,21.83
2023-02-14T05:45:39.563Z,21.83
2023-02-14T05:48:42.458Z,21.84
2023-02-14T05:51:45.331Z,21.84
2023-02-14T05:54:48.240Z,21.85
2023-02-14T05:57:52.415Z,21.85
2023-02-14T06:00:55.289Z,21.86
2023-02-14T06:03:58.098Z,21.85
2023-02-14T06:07:01.149Z,21.86
2023-02-14T06:10:09.797Z,21.87
2023-02-14T06:13:14.125Z,21.88
2023-02-14T06:16:17.022Z,21.90
2023-02-14T06:19:20.021Z,21.89
2023-02-14T06:22:22.811Z,21.90
2023-02-14T06:25:26.486Z,21.89
2023-02-14T06:28:30.711Z,21.90
2023-02-14T06:31:33.803Z,21.89
2023-02-14T06:34:36.679Z,21.91
2023-02-14T06:37:41.191Z,21.90
2023-02-14T06:40:44.093Z,21.91
2023-02-14T06:43:49.632Z,21.92
2023-02-14T06:46:52.558Z,21.91
2023-02-14T06:49:55.420Z,21.90
2023-02-14T06:52:58.310Z,21.88
2023-02-14T06:56:01.170Z,21.86
2023-02-14T06:59:05.796Z,21.84
2023-02-14T07:02:11.050Z,21.83
2023-02-14T07:05:15.351Z,21.80
2023-02-14T07:08:18.497Z,21.77
2023-02-14T07:11:21.824Z,21.74
2023-02-14T07:14:26.162Z,21.73
2023-02-14T07:17:28.991Z,21.71
2023-02-14T07:20:31.862Z,21.70
2023-02-14T07:23:36.005Z,21.69
2023-02-14T07:26:39.207Z,21.67
2023-02-14T07:29:43.476Z,21.69
2023-02-14T07:32:46.343Z,21.67
2023-02-14T07:35:49.307Z,21.65
2023-02-14T07:38:52.256Z,21.62
2023-02-14T07:41:55.190Z,21.59
2023-02-14T07:45:20.652Z,21.56
2023-02-14T07:48:25.240Z,21.59
2023-02-14T07:51:28.278Z,21.59
2023-02-14T07:54:31.460Z,21.62
2023-02-14T07:57:34.507Z,21.65
2023-02-14T08:00:38.762Z,21.65
2023-02-14T08:03:44.387Z,21.66
2023-02-14T08:06:47.221Z,21.66
2023-02-14T08:09:50.080Z,21.67
2023-02-14T08:13:02.092Z,21.68
2023-02-14T08:16:07.475Z,21.69
2023-02-14T08:19:10.972Z,21.70
2023-02-14T08:22:13.831Z,21.72
2023-02-14T08:25:16.780Z,21.73
2023-02-14T08:28:21.897Z,21.73
2023-02-14T08:31:35.582Z,21.74
2023-02-14T08:34:39.065Z,21.75
2023-02-14T08:37:42.211Z,21.75
2023-02-14T08:40:45.428Z,21.74
2023-02-14T08:43:49.037Z,21.74
2023-02-14T08:46:53.424Z,21.74
2023-02-14T08:49:56.434Z,21.74
2023-02-14T08:52:59.607Z,21.72
2023-02-14T08:56:04.838Z,21.70
2023-02-14T08:59:08.148Z,21.71
2023-02-14T09:02:14.629Z,21.70
2023-02-14T09:05:17.732Z,21.70
2023-02-14T09:08:20.768Z,21.69
2023-02-14T09:11:25.946Z,21.69
2023-02-14T09:14:31.186Z,21.68
2023-02-14T09:17:36.638Z,21.69
2023-02-14T09:20:39.535Z,21.67
2023-02-14T09:23:42.605Z,21.66
2023-02-14T09:26:45.535Z,21.66
2023-02-14T09:29:48.709Z,21.65
2023-02-14T09:32:54.345Z,21.64
2023-02-14T09:36:16.324Z,21.65
2023-02-14T09:39:19.327Z,21.65
2023-02-14T09:42:38.017Z,21.65
2023-02-14T09:45:41.630Z,21.65
2023-02-14T09:48:48.453Z,21.66
2023-02-14T09:51:54.031Z,21.65
2023-02-14T09:55:01.060Z,21.65
2023-02-14T09:58:14.159Z,21.65
2023-02-14T10:01:23.224Z,21.65
2023-02-14T10:04:32.496Z,21.64
2023-02-14T10:07:48.302Z,21.65
2023-02-14T10:11:01.874Z,21.64
2023-02-14T10:14:09.942Z,21.62
2023-02-14T10:17:19.185Z,21.62
2023-02-14T10:20:29.024Z,21.61
2023-02-14T10:23:35.679Z,21.61
2023-02-14T10:26:41.333Z,21.60
2023-02-14T10:29:44.281Z,21.60
2023-02-14T10:32:49.961Z,21.59
2023-02-14T10:36:01.448Z,21.60
2023-02-14T10:39:13.810Z,21.61
2023-02-14T10:42:23.932Z,21.61
2023-02-14T10:45:35.375Z,21.62
2023-02-14T10:48:48.070Z,21.61
2023-02-14T10:51:58.266Z,21.60
2023-02-14T10:55:12.455Z,21.60
2023-02-14T10:58:20.847Z,21.60
2023-02-14T11:01:24.765Z,21.61
2023-02-14T11:04:29.040Z,21.62
2023-02-14T11:07:33.504Z,21.61
2023-02-14T11:10:36.401Z,21.61
2023-02-14T11:13:42.718Z,21.61
2023-02-14T11:16:45.565Z,21.62
2023-02-14T11:19:58.314Z,21.62
2023-02-14T11:23:02.579Z,21.64
2023-02-14T11:26:09.670Z,21.65
2023-02-14T11:29:16.226Z,21.65
2023-02-14T11:32:23.812Z,21.66
2023-02-14T11:35:34.398Z,21.67
2023-02-14T11:38:40.076Z,21.67
2023-02-14T11:41:51.174Z,21.67
2023-02-14T11:44:58.351Z,21.66
2023-02-14T11:48:38.327Z,21.67
2023-02-14T11:51:50.881Z,21.64
2023-02-14T11:55:05.259Z,21.63
2023-02-14T11:58:36.681Z,21.65
2023-02-14T12:01:45.557Z,21.64
2023-02-14T12:04:53.411Z,21.64
2023-02-14T12:07:57.949Z,21.63
2023-02-14T12:11:07.453Z,21.64
2023-02-14T12:14:22.771Z,21.64
2023-02-14T12:17:33.043Z,21.65
2023-02-14T12:20:42.051Z,21.65
2023-02-14T12:23:51.489Z,21.66
2023-02-14T12:27:03.576Z,21.65
2023-02-14T12:30:14.255Z,21.64
2023-02-14T12:33:21.145Z,21.64
2023-02-14T12:36:38.547Z,21.64
2023-02-14T12:39:55.741Z,21.64
2023-02-14T12:43:15.778Z,21.63
2023-02-14T12:47:00.206Z,21.62
2023-02-14T12:50:40.047Z,21.62
2023-02-14T12:54:01.237Z,21.62
2023-02-14T12:57:14.685Z,21.62
2023-02-14T13:00:30.565Z,21.62
2023-02-14T13:03:59.885Z,21.63
2023-02-14T13:07:13.444Z,21.64
2023-02-14T13:10:26.203Z,21.64
2023-02-14T13:13:41.584Z,21.63
2023-02-14T13:16:52.877Z,21.60
2023-02-14T13:20:04.536Z,21.53
2023-02-14T13:23:14.444Z,21.50
2023-02-14T13:26:20.307Z,21.48
2023-02-14T13:29:25.932Z,21.49
2023-02-14T13:32:34.402Z,21.51
2023-02-14T13:35:38.565Z,21.52
2023-02-14T13:38:45.763Z,21.58
2023-02-14T13:41:48.668Z,21.61
2023-02-14T13:44:52.754Z,21.64
2023-02-14T13:48:06.579Z,21.66
2023-02-14T13:51:11.377Z,21.68
2023-02-14T13:54:31.862Z,21.70
2023-02-14T13:57:36.650Z,21.70
2023-02-14T14:00:42.640Z,21.71
2023-02-14T14:03:58.372Z,21.72
2023-02-14T14:07:30.191Z,21.72
2023-02-14T14:10:44.767Z,21.72
2023-02-14T14:14:02.647Z,21.73
2023-02-14T14:17:27.639Z,21.72
2023-02-14T14:20:47.836Z,21.70
2023-02-14T14:24:06.917Z,21.69
2023-02-14T14:27:17.051Z,21.68
2023-02-14T14:30:25.220Z,21.68
2023-02-14T14:33:30.746Z,21.67
2023-02-14T14:36:35.439Z,21.68
2023-02-14T14:39:39.839Z,21.68
2023-02-14T14:42:43.845Z,21.68
2023-02-14T14:45:48.148Z,21.68
2023-02-14T14:48:55.521Z,21.67
2023-02-14T14:51:59.773Z,21.66
2023-02-14T14:55:04.281Z,21.66
2023-02-14T14:58:28.492Z,21.65
2023-02-14T15:01:38.181Z,21.65
2023-02-14T15:04:41.130Z,21.64
2023-02-14T15:07:45.418Z,21.63
2023-02-14T15:10:52.293Z,21.62
2023-02-14T15:13:54.208Z,21.61
2023-02-14T15:17:01.435Z,21.61
2023-02-14T15:20:08.240Z,21.59
2023-02-14T15:23:20.564Z,21.60
2023-02-14T15:26:31.916Z,21.60
2023-02-14T15:29:34.892Z,21.59
2023-02-14T15:32:39.267Z,21.59
2023-02-14T15:35:43.860Z,21.60
2023-02-14T15:38:48.464Z,21.61
2023-02-14T15:41:54.284Z,21.62
2023-02-14T15:45:22.357Z,21.63
2023-02-14T15:48:28.889Z,21.64
2023-02-14T15:51:36.321Z,21.66
2023-02-14T15:54:44.429Z,21.67
2023-02-14T15:57:55.235Z,21.66
2023-02-14T16:00:58.278Z,21.66
2023-02-14T16:04:03.549Z,21.66
2023-02-14T16:07:21.403Z,21.66
2023-02-14T16:10:27.022Z,21.66
2023-02-14T16:13:34.915Z,21.66
2023-02-14T16:17:02.325Z,21.66
2023-02-14T16:20:23.590Z,21.66
2023-02-14T16:23:28.672Z,21.65
2023-02-14T16:26:34.239Z,21.64
2023-02-14T16:29:38.499Z,21.63
2023-02-14T16:32:42.047Z,21.61
2023-02-14T16:35:45.932Z,21.62
2023-02-14T16:38:50.020Z,21.61
2023-02-14T16:41:57.357Z,21.60
2023-02-14T16:45:00.290Z,21.60
2023-02-14T16:48:03.326Z,21.59
2023-02-14T16:51:06.399Z,21.60
2023-02-14T16:54:13.894Z,21.61
2023-02-14T16:57:21.364Z,21.59
2023-02-14T17:00:25.981Z,21.61
2023-02-14T17:03:28.948Z,21.60
2023-02-14T17:06:35.218Z,21.60
2023-02-14T17:09:43.260Z,21.60
2023-02-14T17:12:49.821Z,21.60
2023-02-14T17:15:53.927Z,21.59
2023-02-14T17:18:56.897Z,21.58
2023-02-14T17:22:00.778Z,21.57
2023-02-14T17:25:03.735Z,21.58
2023-02-14T17:28:08.186Z,21.55
2023-02-14T17:31:11.834Z,21.55
2023-02-14T17:34:14.688Z,21.54
2023-02-14T17:37:18.881Z,21.54
2023-02-14T17:40:22.215Z,21.53
2023-02-14T17:43:26.508Z,21.54
2023-02-14T17:46:30.400Z,21.54
2023-02-14T17:49:33.434Z,21.55
2023-02-14T17:52:36.363Z,21.56
2023-02-14T17:55:39.147Z,21.56
2023-02-14T17:58:43.342Z,21.57
2023-02-14T18:01:46.352Z,21.56
2023-02-14T18:04:49.337Z,21.58
2023-02-14T18:07:52.481Z,21.58
2023-02-14T18:10:55.712Z,21.55
2023-02-14T18:14:01.658Z,21.58
2023-02-14T18:17:04.595Z,21.58
2023-02-14T18:20:11.987Z,21.58
2023-02-14T18:23:14.886Z,21.58
2023-02-14T18:26:19.159Z,21.57
2023-02-14T18:29:23.797Z,21.57
2023-02-14T18:32:26.750Z,21.58
2023-02-14T18:35:29.606Z,21.58
2023-02-14T18:38:32.538Z,21.58
2023-02-14T18:41:35.888Z,21.59
2023-02-14T18:44:40.167Z,21.59
2023-02-14T18:47:44.550Z,21.58
2023-02-14T18:50:47.482Z,21.58
2023-02-14T18:53:52.221Z,21.58
2023-02-14T18:56:55.170Z,21.58
2023-02-14T18:59:59.489Z,21.56
2023-02-14T19:03:02.485Z,21.59
2023-02-14T19:06:06.086Z,21.62
2023-02-14T19:09:12.015Z,21.65
2023-02-14T19:12:15.206Z,21.68
2023-02-14T19:15:20.904Z,21.69
2023-02-14T19:18:25.758Z,21.71
2023-02-14T19:21:30.756Z,21.72
2023-02-14T19:24:33.776Z,21.73
2023-02-14T19:27:37.020Z,21.74
2023-02-14T19:30:41.310Z,21.75
2023-02-14T19:33:46.312Z,21.75
2023-02-14T19:36:52.634Z,21.75
2023-02-14T19:39:55.535Z,21.73
2023-02-14T19:42:58.356Z,21.72
2023-02-14T19:46:05.034Z,21.72
2023-02-14T19:49:08.012Z,21.71
2023-02-14T19:52:25.773Z,21.71
2023-02-14T19:55:29.495Z,21.70
2023-02-14T19:58:32.360Z,21.69
2023-02-14T20:01:39.431Z,21.69
2023-02-14T20:04:42.500Z,21.69
2023-02-14T20:07:49.162Z,21.69
2023-02-14T20:10:52.071Z,21.69
2023-02-14T20:13:55.619Z,21.68
2023-02-14T20:17:02.243Z,21.68
2023-02-14T20:20:08.627Z,21.68
2023-02-14T20:23:11.500Z,21.68
2023-02-14T20:26:15.817Z,21.67
2023-02-14T20:29:19.695Z,21.65
2023-02-14T20:32:23.956Z,21.64
2023-02-14T20:35:26.913Z,21.63
2023-02-14T20:38:29.875Z,21.60
2023-02-14T20:41:34.464Z,21.59
2023-02-14T20:44:37.376Z,21.59
2023-02-14T20:47:41.619Z,21.57
2023-02-14T20:50:44.966Z,21.57
2023-02-14T20:53:48.324Z,21.55
2023-02-14T20:56:51.712Z,21.55
2023-02-14T20:59:54.565Z,21.55
2023-02-14T21:02:58.836Z,21.56
2023-02-14T21:06:01.673Z,21.57
2023-02-14T21:09:05.294Z,21.57
2023-02-14T21:12:08.655Z,21.60
2023-02-14T21:15:11.549Z,21.62
2023-02-14T21:18:15.879Z,21.64
2023-02-14T21:21:21.943Z,21.67
2023-02-14T21:24:25.141Z,21.68
2023-02-14T21:27:28.025Z,21.70
2023-02-14T21:30:32.562Z,21.72
2023-02-14T21:33:37.303Z,21.73
2023-02-14T21:36:40.291Z,21.74
2023-02-14T21:39:44.228Z,21.74
2023-02-14T21:42:47.174Z,21.74
2023-02-14T21:45:56.934Z,21.75
2023-02-14T21:49:20.090Z,21.76
2023-02-14T21:52:22.971Z,21.76
2023-02-14T21:55:25.788Z,21.76
2023-02-14T21:58:28.655Z,21.76
2023-02-14T22:01:33.608Z,21.74
2023-02-14T22:04:38.156Z,21.73
2023-02-14T22:07:41.071Z,21.72
2023-02-14T22:10:43.937Z,21.71
2023-02-14T22:13:46.862Z,21.69
2023-02-14T22:16:49.768Z,21.69
2023-02-14T22:19:54.014Z,21.70
2023-02-14T22:22:56.803Z,21.69
2023-02-14T22:26:09.139Z,21.68
2023-02-14T22:29:13.847Z,21.67
2023-02-14T22:32:16.787Z,21.68
2023-02-14T22:35:21.184Z,21.67
2023-02-14T22:38:24.203Z,21.67
2023-02-14T22:41:27.148Z,21.67
2023-02-14T22:44:30.082Z,21.67
2023-02-14T22:47:33.336Z,21.68
2023-02-14T22:50:37.644Z,21.67
2023-02-14T22:53:40.633Z,21.67
2023-02-14T22:56:45.291Z,21.65
2023-02-14T22:59:48.159Z,21.62
2023-02-14T23:02:51.038Z,21.60
2023-02-14T23:05:58.983Z,21.58
2023-02-14T23:09:03.043Z,21.55
2023-02-14T23:12:26.434Z,21.53
2023-02-14T23:15:48.953Z,21.52
2023-02-14T23:19:09.539Z,21.50
2023-02-14T23:22:15.996Z,21.48
2023-02-14T23:25:19.068Z,21.48
2023-02-14T23:28:21.944Z,21.49
2023-02-14T23:31:24.862Z,21.48
2023-02-14T23:34:28.008Z,21.49
2023-02-14T23:37:32.226Z,21.48
2023-02-14T23:40:55.327Z,21.48
2023-02-14T23:43:59.063Z,21.47
2023-02-14T23:47:04.234Z,21.48
2023-02-14T23:50:08.247Z,21.49
2023-02-14T23:53:15.293Z,21.49
2023-02-14T23:56:18.507Z,21.48
2023-02-14T23:59:22.693Z,21.48
